Terminal Aerodrome Forecast
Issued by NWS Blacksburg, VA

Current Version | Previous Version | Text Only | Print | Product List | Glossary On
Versions: 1 2 3 4 5 6 7 8 9 10 11 12 13 14 15 16 17 18 19 20 21 22 23 24 25 26 27 28 29 30 31
000
FTUS41 KRNK 130521
TAFROA
TAF
KROA 130521Z 1306/1406 24003KT P6SM BKN070
     FM131500 23007KT P6SM BKN150
     FM131900 21009KT P6SM VCTS BKN050CB
     FM132200 22006KT P6SM BKN120=

USA.gov is the U.S. government's official web portal to all federal, state and local government web resources and services.